createdAt,value
2023-01-20T00:04:11.429Z,28.02
2023-01-20T00:09:17.447Z,23.60
2023-01-20T00:14:19.059Z,20.70
2023-01-20T00:19:23.228Z,26.42
2023-01-20T00:24:25.141Z,26.88
2023-01-20T00:29:26.894Z,26.48
2023-01-20T00:34:28.640Z,21.17
2023-01-20T00:39:30.322Z,21.52
2023-01-20T00:44:32.175Z,25.17
2023-01-20T00:49:33.836Z,25.35
2023-01-20T00:54:35.678Z,28.80
2023-01-20T00:59:37.560Z,30.75
2023-01-20T01:04:39.203Z,31.70
2023-01-20T01:09:40.873Z,27.08
2023-01-20T01:14:42.498Z,25.92
2023-01-20T01:19:44.107Z,30.77
2023-01-20T01:24:45.710Z,28.55
2023-01-20T01:29:47.371Z,28.70
2023-01-20T01:34:48.992Z,28.50
2023-01-20T01:39:50.716Z,29.27
2023-01-20T01:45:10.803Z,34.22
2023-01-20T01:50:20.509Z,32.03
2023-01-20T01:55:27.477Z,31.08
2023-01-20T02:00:29.675Z,30.15
2023-01-20T02:05:32.295Z,32.65
2023-01-20T02:10:34.067Z,32.47
2023-01-20T02:15:58.673Z,30.02
2023-01-20T02:21:37.579Z,29.65
2023-01-20T02:26:53.356Z,36.33
2023-01-20T02:32:19.213Z,34.22
2023-01-20T02:37:28.634Z,31.63
2023-01-20T02:42:48.851Z,29.13
2023-01-20T02:48:12.584Z,32.40
2023-01-20T02:53:16.867Z,37.28
2023-01-20T02:58:52.775Z,32.05
2023-01-20T03:03:58.426Z,31.30
2023-01-20T03:09:02.363Z,28.85
2023-01-20T03:14:13.734Z,27.38
2023-01-20T03:19:20.205Z,37.08
2023-01-20T03:24:23.205Z,33.38
2023-01-20T03:29:24.920Z,27.27
2023-01-20T03:34:30.039Z,30.15
2023-01-20T03:39:32.711Z,30.58
2023-01-20T03:45:09.441Z,35.83
2023-01-20T03:50:47.907Z,33.92
2023-01-20T03:56:02.560Z,37.53
2023-01-20T04:01:18.439Z,37.05
2023-01-20T04:06:24.958Z,40.17
2023-01-20T04:11:27.909Z,37.10
2023-01-20T04:16:29.772Z,32.92
2023-01-20T04:21:39.332Z,35.92
2023-01-20T04:26:41.157Z,30.45
2023-01-20T04:31:42.869Z,32.83
2023-01-20T04:36:44.717Z,29.80
2023-01-20T04:41:47.441Z,28.55
2023-01-20T04:46:49.289Z,29.75
2023-01-20T04:51:50.905Z,32.90
2023-01-20T04:56:52.491Z,33.97
2023-01-20T05:01:54.477Z,29.95
2023-01-20T05:06:56.399Z,32.88
2023-01-20T05:11:58.067Z,30.90
2023-01-20T05:16:59.811Z,24.60
2023-01-20T05:22:02.367Z,28.70
2023-01-20T05:27:04.092Z,34.25
2023-01-20T05:32:05.722Z,27.60
2023-01-20T05:37:07.385Z,26.35
2023-01-20T05:42:09.037Z,24.05
2023-01-20T05:47:10.691Z,23.58
2023-01-20T05:52:12.387Z,25.83
2023-01-20T05:57:18.162Z,25.13
2023-01-20T06:02:20.320Z,21.77
2023-01-20T06:07:22.018Z,26.58
2023-01-20T06:12:23.897Z,25.05
2023-01-20T06:17:25.640Z,24.92
2023-01-20T06:22:27.660Z,27.45
2023-01-20T06:27:29.257Z,28.92
2023-01-20T06:32:30.856Z,39.58
2023-01-20T06:37:32.674Z,25.88
2023-01-20T06:42:34.304Z,27.80
2023-01-20T06:47:36.250Z,24.73
2023-01-20T06:52:37.845Z,22.48
2023-01-20T06:57:39.431Z,39.53
2023-01-20T07:02:41.313Z,36.40
2023-01-20T07:07:46.037Z,30.85
2023-01-20T07:12:47.677Z,24.50
2023-01-20T07:17:49.288Z,23.15
2023-01-20T07:22:50.917Z,23.38
2023-01-20T07:27:53.171Z,21.63
2023-01-20T07:32:54.768Z,22.05
2023-01-20T07:37:56.619Z,27.40
2023-01-20T07:42:58.242Z,24.63
2023-01-20T07:48:00.140Z,23.77
2023-01-20T07:53:02.019Z,24.73
2023-01-20T07:58:03.640Z,22.25
2023-01-20T08:03:05.297Z,20.90
2023-01-20T08:08:07.203Z,21.17
2023-01-20T08:13:09.217Z,22.42
2023-01-20T08:18:11.067Z,24.75
2023-01-20T08:23:13.014Z,22.70
2023-01-20T08:28:14.728Z,20.27
2023-01-20T08:33:16.322Z,22.65
2023-01-20T08:38:18.167Z,24.52
2023-01-20T08:43:19.783Z,17.75
2023-01-20T08:48:21.510Z,18.73
2023-01-20T08:53:23.137Z,20.90
2023-01-20T08:58:25.588Z,30.65
2023-01-20T09:03:27.519Z,20.23
2023-01-20T09:08:29.655Z,24.45
2023-01-20T09:13:31.425Z,21.08
2023-01-20T09:18:34.578Z,17.10
2023-01-20T09:23:39.075Z,18.08
2023-01-20T09:28:44.525Z,17.73
2023-01-20T09:33:46.127Z,19.20
2023-01-20T09:39:06.280Z,20.42
2023-01-20T09:44:42.413Z,20.00
2023-01-20T09:50:09.885Z,18.02
2023-01-20T09:55:21.566Z,16.50
2023-01-20T10:00:26.187Z,19.38
2023-01-20T10:05:35.652Z,15.25
2023-01-20T10:10:44.146Z,26.40
2023-01-20T10:15:54.216Z,15.77
2023-01-20T10:20:58.720Z,15.48
2023-01-20T10:26:17.095Z,25.25
2023-01-20T10:31:27.843Z,19.20
2023-01-20T10:36:30.950Z,20.02
2023-01-20T10:41:45.638Z,17.98
2023-01-20T10:47:13.629Z,17.58
2023-01-20T10:52:46.661Z,21.57
2023-01-20T10:57:54.678Z,18.35
2023-01-20T11:03:00.058Z,18.50
2023-01-20T11:08:03.624Z,15.93
2023-01-20T11:13:05.529Z,15.98
2023-01-20T11:18:16.584Z,20.00
2023-01-20T11:23:42.088Z,17.65
2023-01-20T11:28:50.746Z,17.50
2023-01-20T11:38:58.355Z,15.73
2023-01-20T11:44:00.870Z,12.50
2023-01-20T11:49:22.033Z,20.73
2023-01-20T11:54:26.202Z,20.05
2023-01-20T11:59:30.353Z,18.30
2023-01-20T12:04:50.807Z,14.55
2023-01-20T12:09:59.362Z,17.02
2023-01-20T12:15:10.718Z,15.13
2023-01-20T12:20:24.221Z,14.35
2023-01-20T12:25:30.605Z,16.70
2023-01-20T12:30:41.309Z,16.85
2023-01-20T12:36:00.958Z,16.25
2023-01-20T12:41:13.629Z,18.20
2023-01-20T12:46:18.170Z,14.75
2023-01-20T12:52:05.654Z,15.50
2023-01-20T12:57:19.589Z,16.02
2023-01-20T13:02:24.145Z,17.17
2023-01-20T13:07:48.344Z,15.65
2023-01-20T13:13:03.953Z,17.67
2023-01-20T13:18:17.835Z,16.70
2023-01-20T13:23:36.903Z,15.73
2023-01-20T13:33:41.819Z,15.60
2023-01-20T13:38:44.548Z,16.30
2023-01-20T13:43:48.283Z,17.75
2023-01-20T13:49:20.966Z,15.57
2023-01-20T13:54:25.450Z,16.92
2023-01-20T13:59:27.246Z,17.52
2023-01-20T14:04:28.891Z,18.88
2023-01-20T14:09:30.493Z,16.40
2023-01-20T14:14:32.300Z,17.50
2023-01-20T14:19:37.262Z,20.30
2023-01-20T14:24:47.878Z,21.00
2023-01-20T14:29:52.277Z,14.70
2023-01-20T14:34:54.878Z,21.40
2023-01-20T14:39:59.458Z,17.83
2023-01-20T14:45:01.157Z,19.25
2023-01-20T14:50:03.029Z,18.70
2023-01-20T14:55:05.110Z,24.38
2023-01-20T15:00:19.258Z,27.25
2023-01-20T15:05:31.854Z,16.92
2023-01-20T15:10:33.722Z,16.92
2023-01-20T15:15:35.414Z,19.48
2023-01-20T15:20:43.987Z,15.60
2023-01-20T15:25:46.132Z,23.25
2023-01-20T15:30:47.823Z,23.02
2023-01-20T15:36:00.649Z,22.48
2023-01-20T15:41:02.305Z,24.75
2023-01-20T15:46:10.821Z,21.02
2023-01-20T15:51:15.141Z,20.85
2023-01-20T15:56:25.198Z,16.40
2023-01-20T16:01:29.037Z,16.92
2023-01-20T16:06:33.263Z,21.80
2023-01-20T16:11:35.119Z,17.33
2023-01-20T16:16:37.008Z,17.48
2023-01-20T16:21:38.808Z,17.17
2023-01-20T16:26:42.947Z,13.60
2023-01-20T16:31:44.682Z,16.80
2023-01-20T16:36:46.313Z,16.83
2023-01-20T16:41:49.855Z,16.95
2023-01-20T16:46:51.506Z,16.33
2023-01-20T16:51:53.123Z,21.92
2023-01-20T16:56:54.713Z,16.40
2023-01-20T17:01:56.411Z,18.33
2023-01-20T17:06:58.051Z,17.60
2023-01-20T17:11:59.692Z,17.98
2023-01-20T17:17:01.353Z,17.58
2023-01-20T17:22:03.036Z,15.43
2023-01-20T17:27:04.698Z,18.13
2023-01-20T17:32:06.626Z,20.10
2023-01-20T17:37:08.252Z,17.00
2023-01-20T17:42:09.853Z,18.38
2023-01-20T17:47:12.183Z,16.92
2023-01-20T17:52:13.851Z,23.70
2023-01-20T17:57:15.507Z,19.95
2023-01-20T18:02:18.735Z,16.92
2023-01-20T18:07:20.427Z,16.63
2023-01-20T18:12:22.228Z,14.88
2023-01-20T18:17:24.061Z,14.73
2023-01-20T18:22:25.790Z,15.90
2023-01-20T18:27:27.590Z,16.73
2023-01-20T18:32:29.451Z,17.85
2023-01-20T18:37:32.466Z,14.07
2023-01-20T18:42:34.079Z,15.55
2023-01-20T18:47:35.881Z,14.75
2023-01-20T18:52:37.783Z,14.13
2023-01-20T18:57:39.600Z,17.45
2023-01-20T19:02:41.341Z,13.90
2023-01-20T19:07:48.521Z,17.38
2023-01-20T19:12:51.799Z,17.92
2023-01-20T19:17:53.478Z,17.95
2023-01-20T19:22:55.106Z,16.58
2023-01-20T19:27:56.879Z,17.08
2023-01-20T19:32:58.487Z,17.85
2023-01-20T19:38:00.211Z,19.00
2023-01-20T19:43:01.865Z,23.02
2023-01-20T19:48:03.947Z,22.33
2023-01-20T19:53:05.564Z,20.33
2023-01-20T19:58:07.160Z,28.23
2023-01-20T20:03:08.976Z,23.17
2023-01-20T20:08:10.580Z,27.08
2023-01-20T20:13:12.213Z,26.10
2023-01-20T20:18:13.896Z,23.33
2023-01-20T20:23:17.881Z,25.40
2023-01-20T20:28:19.788Z,28.33
2023-01-20T20:33:23.170Z,27.33
2023-01-20T20:38:25.030Z,26.30
2023-01-20T20:43:28.019Z,27.90
2023-01-20T20:48:30.372Z,27.85
2023-01-20T20:53:32.179Z,27.85
2023-01-20T20:58:34.475Z,26.83
2023-01-20T21:03:36.092Z,33.10
2023-01-20T21:08:39.125Z,29.20
2023-01-20T21:13:42.909Z,27.50
2023-01-20T21:18:44.523Z,28.73
2023-01-20T21:23:52.060Z,28.98
2023-01-20T21:28:54.061Z,21.73
2023-01-20T21:33:59.440Z,30.40
2023-01-20T21:39:01.164Z,32.20
2023-01-20T21:44:21.330Z,29.17
2023-01-20T21:49:41.782Z,27.88
2023-01-20T21:54:45.128Z,31.65
2023-01-20T21:59:47.160Z,33.80
2023-01-20T22:04:48.838Z,35.13
2023-01-20T22:09:50.655Z,41.65
2023-01-20T22:14:52.477Z,39.17
2023-01-20T22:19:54.486Z,41.97
2023-01-20T22:24:56.383Z,40.53
2023-01-20T22:29:58.183Z,39.38
2023-01-20T22:34:59.808Z,39.35
2023-01-20T22:40:02.113Z,41.13
2023-01-20T22:45:04.199Z,42.30
2023-01-20T22:50:07.869Z,39.90
2023-01-20T22:55:09.664Z,42.63
2023-01-20T23:00:12.193Z,43.88
2023-01-20T23:05:14.062Z,37.67
2023-01-20T23:10:35.764Z,39.75
2023-01-20T23:15:37.571Z,40.47
2023-01-20T23:20:39.576Z,38.97
2023-01-20T23:25:41.453Z,35.70
2023-01-20T23:30:43.592Z,34.20
2023-01-20T23:35:45.228Z,35.38
2023-01-20T23:40:50.113Z,34.53
2023-01-20T23:45:51.875Z,38.88
2023-01-20T23:50:54.765Z,32.55
2023-01-20T23:56:01.330Z,30.15
